createdAt,value
2023-05-05T00:00:44.332Z,95285.00
2023-05-05T00:01:44.353Z,95283.00
2023-05-05T00:02:44.434Z,95283.00
2023-05-05T00:03:44.504Z,95285.00
2023-05-05T00:04:44.486Z,95283.00
2023-05-05T00:05:44.532Z,95283.00
2023-05-05T00:06:44.630Z,95283.00
2023-05-05T00:07:44.653Z,95281.00
2023-05-05T00:08:44.682Z,95279.00
2023-05-05T00:09:44.739Z,95275.00
2023-05-05T00:10:44.815Z,95281.00
2023-05-05T00:11:44.870Z,95281.00
2023-05-05T00:12:44.952Z,95279.00
2023-05-05T00:13:44.980Z,95281.00
2023-05-05T00:14:45.022Z,95281.00
2023-05-05T00:15:45.097Z,95275.00
2023-05-05T00:16:45.196Z,95273.00
2023-05-05T00:17:45.191Z,95275.00
2023-05-05T00:18:45.228Z,95277.00
2023-05-05T00:19:45.246Z,95277.00
2023-05-05T00:20:45.304Z,95279.00
2023-05-05T00:21:45.387Z,95279.00
2023-05-05T00:22:45.446Z,95279.00
2023-05-05T00:23:45.455Z,95279.00
2023-05-05T00:24:45.507Z,95279.00
2023-05-05T00:25:45.582Z,95279.00
2023-05-05T00:26:45.628Z,95279.00
2023-05-05T00:27:45.687Z,95277.00
2023-05-05T00:28:45.714Z,95279.00
2023-05-05T00:29:45.815Z,95277.00
2023-05-05T00:30:45.868Z,95277.00
2023-05-05T00:31:45.929Z,95277.00
2023-05-05T00:32:46.015Z,95277.00
2023-05-05T00:33:46.032Z,95277.00
2023-05-05T00:34:46.078Z,95279.00
2023-05-05T00:35:46.180Z,95275.00
2023-05-05T00:36:46.232Z,95277.00
2023-05-05T00:37:46.298Z,95277.00
2023-05-05T00:38:46.351Z,95277.00
2023-05-05T00:39:46.413Z,95279.00
2023-05-05T00:40:46.485Z,95279.00
2023-05-05T00:41:46.563Z,95279.00
2023-05-05T00:42:46.617Z,95281.00
2023-05-05T00:43:46.639Z,95279.00
2023-05-05T00:44:46.686Z,95281.00
2023-05-05T00:45:46.763Z,95285.00
2023-05-05T00:46:46.872Z,95285.00
2023-05-05T00:47:46.886Z,95285.00
2023-05-05T00:48:46.949Z,95287.00
2023-05-05T00:49:46.980Z,95281.00
2023-05-05T00:50:47.064Z,95283.00
2023-05-05T00:51:47.135Z,95281.00
2023-05-05T00:52:47.157Z,95279.00
2023-05-05T00:53:47.249Z,95281.00
2023-05-05T00:54:47.314Z,95279.00
2023-05-05T00:55:47.343Z,95279.00
2023-05-05T00:56:47.418Z,95279.00
2023-05-05T00:57:47.475Z,95279.00
2023-05-05T00:58:47.513Z,95281.00
2023-05-05T00:59:47.594Z,95277.00
2023-05-05T01:00:47.621Z,95281.00
2023-05-05T01:01:47.759Z,95279.00
2023-05-05T01:02:47.784Z,95279.00
2023-05-05T01:03:47.964Z,95279.00
2023-05-05T01:04:47.900Z,95279.00
2023-05-05T01:05:47.950Z,95279.00
2023-05-05T01:06:47.988Z,95277.00
2023-05-05T01:07:48.088Z,95275.00
2023-05-05T01:08:48.124Z,95275.00
2023-05-05T01:09:48.208Z,95273.00
2023-05-05T01:10:48.237Z,95275.00
2023-05-05T01:11:48.292Z,95277.00
2023-05-05T01:12:48.376Z,95275.00
2023-05-05T01:13:48.415Z,95277.00
2023-05-05T01:14:48.445Z,95277.00
2023-05-05T01:15:48.523Z,95275.00
2023-05-05T01:16:48.573Z,95277.00
2023-05-05T01:17:48.628Z,95277.00
2023-05-05T01:18:48.677Z,95277.00
2023-05-05T01:19:49.516Z,95279.00
2023-05-05T01:20:48.816Z,95279.00
2023-05-05T01:21:48.860Z,95279.00
2023-05-05T01:22:48.932Z,95275.00
2023-05-05T01:23:48.981Z,95277.00
2023-05-05T01:24:49.005Z,95279.00
2023-05-05T01:25:49.090Z,95281.00
2023-05-05T01:26:49.104Z,95281.00
2023-05-05T01:27:49.160Z,95283.00
2023-05-05T01:28:49.241Z,95279.00
2023-05-05T01:29:49.292Z,95281.00
2023-05-05T01:30:49.343Z,95281.00
2023-05-05T01:31:49.442Z,95281.00
2023-05-05T01:32:49.442Z,95281.00
2023-05-05T01:33:49.500Z,95283.00
2023-05-05T01:34:49.555Z,95281.00
2023-05-05T01:35:49.620Z,95283.00
2023-05-05T01:36:49.650Z,95285.00
2023-05-05T01:37:49.653Z,95287.00
2023-05-05T01:38:49.741Z,95289.00
2023-05-05T01:39:49.836Z,95285.00
2023-05-05T01:40:49.870Z,95289.00
2023-05-05T01:41:49.908Z,95289.00
2023-05-05T01:42:49.975Z,95287.00
2023-05-05T01:43:50.006Z,95289.00
2023-05-05T01:44:50.084Z,95289.00
2023-05-05T01:45:50.207Z,95287.00
2023-05-05T01:46:50.207Z,95281.00
2023-05-05T01:47:50.265Z,95283.00
2023-05-05T01:48:50.278Z,95287.00
2023-05-05T01:49:50.300Z,95287.00
2023-05-05T01:50:50.415Z,95287.00
2023-05-05T01:51:50.392Z,95289.00
2023-05-05T01:52:50.428Z,95287.00
2023-05-05T01:53:50.488Z,95283.00
2023-05-05T01:54:50.541Z,95283.00
2023-05-05T01:55:50.591Z,95283.00
2023-05-05T01:56:50.595Z,95283.00
2023-05-05T01:57:50.688Z,95287.00
2023-05-05T01:58:50.747Z,95289.00
2023-05-05T01:59:50.851Z,95291.00
2023-05-05T02:00:50.868Z,95291.00
2023-05-05T02:01:50.924Z,95291.00
2023-05-05T02:02:51.082Z,95293.00
2023-05-05T02:03:50.993Z,95291.00
2023-05-05T02:04:51.018Z,95287.00
2023-05-05T02:05:51.047Z,95289.00
2023-05-05T02:06:51.048Z,95285.00
2023-05-05T02:07:51.100Z,95287.00
2023-05-05T02:08:51.166Z,95293.00
2023-05-05T02:09:51.239Z,95295.00
2023-05-05T02:10:51.308Z,95293.00
2023-05-05T02:11:51.331Z,95297.00
2023-05-05T02:12:51.428Z,95295.00
2023-05-05T02:13:51.451Z,95293.00
2023-05-05T02:14:51.437Z,95295.00
2023-05-05T02:15:51.546Z,95297.00
2023-05-05T02:16:51.491Z,95297.00
2023-05-05T02:17:51.586Z,95297.00
2023-05-05T02:18:51.555Z,95299.00
2023-05-05T02:19:51.612Z,95299.00
2023-05-05T02:20:51.724Z,95299.00
2023-05-05T02:21:51.752Z,95299.00
2023-05-05T02:22:51.797Z,95301.00
2023-05-05T02:23:51.940Z,95301.00
2023-05-05T02:24:51.861Z,95299.00
2023-05-05T02:25:51.861Z,95301.00
2023-05-05T02:26:51.871Z,95301.00
2023-05-05T02:27:51.975Z,95299.00
2023-05-05T02:28:52.009Z,95297.00
2023-05-05T02:29:52.159Z,95301.00
2023-05-05T02:30:52.191Z,95305.00
2023-05-05T02:31:52.514Z,95305.00
2023-05-05T02:32:52.393Z,95305.00
2023-05-05T02:33:52.465Z,95301.00
2023-05-05T02:34:52.532Z,95299.00
2023-05-05T02:35:52.535Z,95299.00
2023-05-05T02:36:52.569Z,95301.00
2023-05-05T02:37:52.599Z,95299.00
2023-05-05T02:38:52.616Z,95305.00
2023-05-05T02:39:52.594Z,95307.00
2023-05-05T02:40:52.622Z,95309.00
2023-05-05T02:41:52.643Z,95313.00
2023-05-05T02:42:52.755Z,95313.00
2023-05-05T02:43:52.737Z,95309.00
2023-05-05T02:44:52.811Z,95309.00
2023-05-05T02:45:52.814Z,95309.00
2023-05-05T02:46:53.008Z,95311.00
2023-05-05T02:47:52.793Z,95309.00
2023-05-05T02:48:52.792Z,95311.00
2023-05-05T02:49:52.840Z,95313.00
2023-05-05T02:50:52.934Z,95313.00
2023-05-05T02:51:52.971Z,95313.00
2023-05-05T02:52:53.086Z,95313.00
2023-05-05T02:53:53.177Z,95313.00
2023-05-05T02:54:53.161Z,95313.00
2023-05-05T02:55:53.179Z,95311.00
2023-05-05T02:56:53.189Z,95311.00
2023-05-05T02:57:53.171Z,95313.00
2023-05-05T02:58:53.157Z,95313.00
2023-05-05T02:59:53.179Z,95309.00
2023-05-05T03:00:53.324Z,95311.00
2023-05-05T03:01:53.491Z,95309.00
2023-05-05T03:02:53.540Z,95315.00
2023-05-05T03:03:53.574Z,95317.00
2023-05-05T03:04:53.657Z,95319.00
2023-05-05T03:05:53.668Z,95319.00
2023-05-05T03:06:53.623Z,95317.00
2023-05-05T03:07:53.631Z,95319.00
2023-05-05T03:08:53.644Z,95315.00
2023-05-05T03:09:53.649Z,95317.00
2023-05-05T03:10:53.689Z,95317.00
2023-05-05T03:11:53.685Z,95315.00
2023-05-05T03:12:53.737Z,95313.00
2023-05-05T03:13:53.715Z,95313.00
2023-05-05T03:14:53.680Z,95313.00
2023-05-05T03:15:53.692Z,95313.00
2023-05-05T03:16:53.745Z,95313.00
2023-05-05T03:17:53.828Z,95315.00
2023-05-05T03:18:53.815Z,95317.00
2023-05-05T03:19:53.803Z,95317.00
2023-05-05T03:20:53.811Z,95317.00
2023-05-05T03:21:53.806Z,95315.00
2023-05-05T03:22:53.823Z,95317.00
2023-05-05T03:23:53.842Z,95315.00
2023-05-05T03:24:53.943Z,95317.00
2023-05-05T03:25:54.026Z,95315.00
2023-05-05T03:26:54.101Z,95317.00
2023-05-05T03:27:54.091Z,95313.00
2023-05-05T03:28:54.135Z,95311.00
2023-05-05T03:29:54.113Z,95313.00
2023-05-05T03:30:54.133Z,95315.00
2023-05-05T03:31:54.119Z,95313.00
2023-05-05T03:32:54.102Z,95317.00
2023-05-05T03:33:54.113Z,95317.00
2023-05-05T03:34:54.106Z,95315.00
2023-05-05T03:35:54.104Z,95317.00
2023-05-05T03:36:54.136Z,95317.00
2023-05-05T03:37:54.137Z,95315.00
2023-05-05T03:38:54.184Z,95317.00
2023-05-05T03:39:54.167Z,95317.00
2023-05-05T03:40:54.185Z,95313.00
2023-05-05T03:41:54.155Z,95315.00
2023-05-05T03:42:54.162Z,95317.00
2023-05-05T03:43:54.168Z,95317.00
2023-05-05T03:44:54.246Z,95315.00
2023-05-05T03:45:54.367Z,95315.00
2023-05-05T03:46:54.406Z,95313.00
2023-05-05T03:47:54.552Z,95315.00
2023-05-05T03:48:54.514Z,95317.00
2023-05-05T03:49:54.473Z,95315.00
2023-05-05T03:50:54.533Z,95309.00
2023-05-05T03:51:54.492Z,95313.00
2023-05-05T03:52:54.481Z,95311.00
2023-05-05T03:53:54.588Z,95311.00
2023-05-05T03:54:54.684Z,95313.00
2023-05-05T03:55:54.810Z,95315.00
2023-05-05T03:56:54.851Z,95315.00
2023-05-05T03:57:54.976Z,95315.00
2023-05-05T03:58:55.073Z,95311.00
2023-05-05T03:59:55.152Z,95309.00
2023-05-05T04:00:55.233Z,95307.00
2023-05-05T04:01:55.293Z,95309.00
2023-05-05T04:02:55.373Z,95311.00
2023-05-05T04:03:55.501Z,95309.00
2023-05-05T04:04:55.255Z,95311.00
2023-05-05T04:05:55.353Z,95313.00
2023-05-05T04:06:55.322Z,95313.00
2023-05-05T04:07:55.310Z,95315.00
2023-05-05T04:08:55.316Z,95315.00
2023-05-05T04:09:55.289Z,95317.00
2023-05-05T04:10:55.311Z,95315.00
2023-05-05T04:11:55.395Z,95311.00
2023-05-05T04:12:55.450Z,95311.00
2023-05-05T04:13:55.383Z,95313.00
2023-05-05T04:14:55.396Z,95311.00
2023-05-05T04:15:55.409Z,95313.00
2023-05-05T04:16:55.440Z,95313.00
2023-05-05T04:17:55.695Z,95313.00
2023-05-05T04:18:55.573Z,95315.00
2023-05-05T04:19:55.693Z,95315.00
2023-05-05T04:20:55.673Z,95315.00
2023-05-05T04:21:55.672Z,95317.00
2023-05-05T04:22:55.638Z,95319.00
2023-05-05T04:23:55.670Z,95319.00
2023-05-05T04:24:55.658Z,95315.00
2023-05-05T04:25:55.705Z,95315.00
2023-05-05T04:26:55.739Z,95317.00
2023-05-05T04:27:55.724Z,95315.00
2023-05-05T04:28:55.701Z,95317.00
2023-05-05T04:29:55.735Z,95317.00
2023-05-05T04:30:55.766Z,95321.00
2023-05-05T04:31:55.749Z,95317.00
2023-05-05T04:32:55.880Z,95321.00
2023-05-05T04:33:55.947Z,95319.00
2023-05-05T04:34:55.920Z,95323.00
2023-05-05T04:35:55.900Z,95323.00
2023-05-05T04:36:55.922Z,95321.00
2023-05-05T04:37:55.898Z,95324.00
2023-05-05T04:38:55.983Z,95326.00
2023-05-05T04:39:55.932Z,95326.00
2023-05-05T04:40:55.934Z,95326.00
2023-05-05T04:41:55.949Z,95326.00
2023-05-05T04:42:55.950Z,95326.00
2023-05-05T04:43:55.937Z,95326.00
2023-05-05T04:44:55.938Z,95324.00
2023-05-05T04:45:55.977Z,95326.00
2023-05-05T04:46:56.132Z,95326.00
2023-05-05T04:47:56.194Z,95328.00
2023-05-05T04:48:56.246Z,95328.00
2023-05-05T04:49:56.228Z,95328.00
2023-05-05T04:50:56.227Z,95328.00
2023-05-05T04:51:56.530Z,95330.00
2023-05-05T04:52:56.219Z,95328.00
2023-05-05T04:53:56.282Z,95330.00
2023-05-05T04:54:56.405Z,95330.00
2023-05-05T04:55:56.506Z,95330.00
2023-05-05T04:56:56.501Z,95334.00
2023-05-05T04:57:56.459Z,95334.00
2023-05-05T04:58:56.477Z,95336.00
2023-05-05T04:59:56.489Z,95336.00
2023-05-05T05:00:56.490Z,95338.00
2023-05-05T05:01:56.554Z,95338.00
2023-05-05T05:02:56.642Z,95338.00
2023-05-05T05:03:56.628Z,95338.00
2023-05-05T05:04:56.570Z,95338.00
2023-05-05T05:05:56.545Z,95340.00
2023-05-05T05:06:59.027Z,95340.00
2023-05-05T05:07:56.605Z,95344.00
2023-05-05T05:08:56.603Z,95342.00
2023-05-05T05:09:56.582Z,95342.00
2023-05-05T05:10:56.585Z,95342.00
2023-05-05T05:11:56.594Z,95342.00
2023-05-05T05:12:56.569Z,95342.00
2023-05-05T05:13:56.559Z,95344.00
2023-05-05T05:14:56.553Z,95346.00
2023-05-05T05:15:56.562Z,95346.00
2023-05-05T05:16:56.657Z,95346.00
2023-05-05T05:17:56.566Z,95344.00
2023-05-05T05:18:56.546Z,95340.00
2023-05-05T05:19:56.515Z,95342.00
2023-05-05T05:20:56.508Z,95342.00
2023-05-05T05:21:56.532Z,95342.00
2023-05-05T05:22:56.512Z,95340.00
2023-05-05T05:23:56.492Z,95340.00
2023-05-05T05:24:56.496Z,95342.00
2023-05-05T05:25:56.494Z,95340.00
2023-05-05T05:26:56.483Z,95342.00
2023-05-05T05:28:08.927Z,95342.00
2023-05-05T05:28:57.496Z,95342.00
2023-05-05T05:29:56.438Z,95340.00
2023-05-05T05:30:56.430Z,95340.00
2023-05-05T05:31:56.504Z,95340.00
2023-05-05T05:32:56.609Z,95344.00
2023-05-05T05:33:56.454Z,95342.00
2023-05-05T05:34:56.426Z,95346.00
2023-05-05T05:35:56.411Z,95342.00
2023-05-05T05:36:56.391Z,95344.00
2023-05-05T05:37:56.411Z,95342.00
2023-05-05T05:38:56.401Z,95340.00
2023-05-05T05:39:56.378Z,95340.00
2023-05-05T05:40:56.376Z,95342.00
2023-05-05T05:41:56.378Z,95346.00
2023-05-05T05:42:56.387Z,95348.00
2023-05-05T05:43:56.359Z,95346.00
2023-05-05T05:44:56.337Z,95348.00
2023-05-05T05:45:56.379Z,95346.00
2023-05-05T05:46:56.348Z,95348.00
2023-05-05T05:47:56.411Z,95348.00
2023-05-05T05:48:56.350Z,95346.00
2023-05-05T05:49:56.340Z,95350.00
2023-05-05T05:50:56.310Z,95350.00
2023-05-05T05:51:56.614Z,95352.00
2023-05-05T05:52:56.503Z,95350.00
2023-05-05T05:53:58.177Z,95352.00
2023-05-05T05:54:56.395Z,95354.00
2023-05-05T05:55:56.411Z,95354.00
2023-05-05T05:56:56.498Z,95354.00
2023-05-05T05:57:56.552Z,95352.00
2023-05-05T05:58:56.569Z,95352.00
2023-05-05T05:59:56.640Z,95354.00
2023-05-05T06:00:56.678Z,95354.00
2023-05-05T06:01:56.737Z,95352.00
2023-05-05T06:02:57.002Z,95354.00
2023-05-05T06:03:56.916Z,95354.00
2023-05-05T06:04:56.904Z,95350.00
2023-05-05T06:05:56.913Z,95352.00
2023-05-05T06:06:56.944Z,95352.00
2023-05-05T06:07:57.030Z,95350.00
2023-05-05T06:08:57.078Z,95350.00
2023-05-05T06:09:57.105Z,95354.00
2023-05-05T06:10:57.148Z,95354.00
2023-05-05T06:11:57.608Z,95348.00
2023-05-05T06:12:57.315Z,95352.00
2023-05-05T06:13:57.245Z,95350.00
2023-05-05T06:14:57.288Z,95352.00
2023-05-05T06:15:57.321Z,95352.00
2023-05-05T06:16:57.291Z,95352.00
2023-05-05T06:17:57.366Z,95352.00
2023-05-05T06:18:57.340Z,95350.00
2023-05-05T06:19:57.417Z,95346.00
2023-05-05T06:20:57.379Z,95346.00
2023-05-05T06:21:57.354Z,95344.00
2023-05-05T06:22:57.380Z,95344.00
2023-05-05T06:23:57.363Z,95344.00
2023-05-05T06:24:57.440Z,95344.00
2023-05-05T06:25:57.514Z,95342.00
2023-05-05T06:26:57.602Z,95342.00
2023-05-05T06:27:57.696Z,95342.00
2023-05-05T06:28:57.684Z,95340.00
2023-05-05T06:29:57.700Z,95342.00
2023-05-05T06:30:57.768Z,95342.00
2023-05-05T06:31:57.763Z,95340.00
2023-05-05T06:32:57.833Z,95340.00
2023-05-05T06:33:57.830Z,95338.00
2023-05-05T06:34:57.884Z,95338.00
2023-05-05T06:35:57.897Z,95336.00
2023-05-05T06:36:57.957Z,95334.00
2023-05-05T06:37:58.017Z,95334.00
2023-05-05T06:38:58.088Z,95334.00
2023-05-05T06:39:58.180Z,95330.00
2023-05-05T06:40:58.193Z,95326.00
2023-05-05T06:41:58.247Z,95326.00
2023-05-05T06:42:58.266Z,95326.00
2023-05-05T06:43:58.261Z,95326.00
2023-05-05T06:44:58.275Z,95323.00
2023-05-05T06:45:58.256Z,95323.00
2023-05-05T06:46:58.670Z,95321.00
2023-05-05T06:47:58.346Z,95321.00
2023-05-05T06:48:58.379Z,95319.00
2023-05-05T06:49:58.381Z,95319.00
2023-05-05T06:50:58.413Z,95317.00
2023-05-05T06:51:58.395Z,95315.00
2023-05-05T06:52:58.403Z,95313.00
2023-05-05T06:53:58.447Z,95315.00
2023-05-05T06:54:58.495Z,95313.00
2023-05-05T06:55:58.579Z,95315.00
2023-05-05T06:56:59.583Z,95315.00
2023-05-05T06:57:58.718Z,95319.00
2023-05-05T06:58:58.703Z,95317.00
2023-05-05T06:59:58.846Z,95313.00
2023-05-05T07:00:58.877Z,95315.00
2023-05-05T07:01:58.829Z,95317.00
2023-05-05T07:02:58.883Z,95315.00
2023-05-05T07:03:58.979Z,95317.00
2023-05-05T07:04:59.001Z,95315.00
2023-05-05T07:05:59.008Z,95313.00
2023-05-05T07:06:59.146Z,95313.00
2023-05-05T07:07:59.168Z,95309.00
2023-05-05T07:08:59.243Z,95315.00
2023-05-05T07:09:59.257Z,95311.00
2023-05-05T07:10:59.329Z,95315.00
2023-05-05T07:11:59.377Z,95309.00
2023-05-05T07:12:59.661Z,95309.00
2023-05-05T07:13:59.487Z,95305.00
2023-05-05T07:15:00.001Z,95305.00
2023-05-05T07:15:59.685Z,95307.00
2023-05-05T07:16:59.708Z,95307.00
2023-05-05T07:17:59.773Z,95303.00
2023-05-05T07:18:59.782Z,95301.00
2023-05-05T07:19:59.866Z,95297.00
2023-05-05T07:20:59.872Z,95297.00
2023-05-05T07:21:59.996Z,95293.00
2023-05-05T07:23:00.005Z,95297.00
2023-05-05T07:24:00.060Z,95293.00
2023-05-05T07:25:00.167Z,95293.00
2023-05-05T07:26:00.188Z,95295.00
2023-05-05T07:27:00.264Z,95293.00
2023-05-05T07:28:00.286Z,95289.00
2023-05-05T07:29:00.358Z,95295.00
2023-05-05T07:30:00.457Z,95293.00
2023-05-05T07:31:00.544Z,95291.00
2023-05-05T07:32:00.584Z,95289.00
2023-05-05T07:33:00.678Z,95287.00
2023-05-05T07:34:00.642Z,95285.00
2023-05-05T07:35:00.739Z,95283.00
2023-05-05T07:36:00.808Z,95285.00
2023-05-05T07:37:01.144Z,95285.00
2023-05-05T07:38:00.894Z,95283.00
2023-05-05T07:39:00.975Z,95283.00
2023-05-05T07:40:01.035Z,95279.00
2023-05-05T07:41:01.077Z,95283.00
2023-05-05T07:42:01.137Z,95279.00
2023-05-05T07:43:01.201Z,95277.00
2023-05-05T07:44:01.245Z,95275.00
2023-05-05T07:45:01.276Z,95275.00
2023-05-05T07:46:01.321Z,95271.00
2023-05-05T07:47:01.648Z,95266.00
2023-05-05T07:48:01.512Z,95266.00
2023-05-05T07:49:01.395Z,95266.00
2023-05-05T07:50:01.318Z,95260.00
2023-05-05T07:51:01.344Z,95262.00
2023-05-05T07:52:01.712Z,95254.00
2023-05-05T07:53:13.636Z,95254.00
2023-05-05T07:54:02.351Z,95250.00
2023-05-05T07:55:01.337Z,95252.00
2023-05-05T07:56:01.348Z,95252.00
2023-05-05T07:57:01.339Z,95254.00
2023-05-05T07:58:01.311Z,95250.00
2023-05-05T07:59:01.348Z,95250.00
2023-05-05T08:00:01.284Z,95250.00
2023-05-05T08:01:01.303Z,95246.00
2023-05-05T08:02:01.310Z,95246.00
2023-05-05T08:03:01.427Z,95248.00
2023-05-05T08:04:01.415Z,95248.00
2023-05-05T08:05:01.255Z,95242.00
2023-05-05T08:06:01.249Z,95246.00
2023-05-05T08:07:01.257Z,95246.00
2023-05-05T08:08:01.254Z,95250.00
2023-05-05T08:09:01.269Z,95252.00
2023-05-05T08:10:01.237Z,95248.00
2023-05-05T08:11:01.240Z,95246.00
2023-05-05T08:12:01.199Z,95244.00
2023-05-05T08:13:01.238Z,95242.00
2023-05-05T08:14:01.228Z,95244.00
2023-05-05T08:15:01.222Z,95240.00
2023-05-05T08:16:01.314Z,95240.00
2023-05-05T08:17:01.266Z,95236.00
2023-05-05T08:18:01.336Z,95238.00
2023-05-05T08:19:01.244Z,95234.00
2023-05-05T08:20:01.385Z,95236.00
2023-05-05T08:21:01.321Z,95232.00
2023-05-05T08:22:01.788Z,95234.00
2023-05-05T08:23:01.404Z,95232.00
2023-05-05T08:24:01.468Z,95228.00
2023-05-05T08:25:01.463Z,95228.00
2023-05-05T08:26:01.505Z,95226.00
2023-05-05T08:27:01.565Z,95224.00
2023-05-05T08:28:01.586Z,95230.00
2023-05-05T08:29:01.602Z,95226.00
2023-05-05T08:30:01.678Z,95222.00
2023-05-05T08:31:01.710Z,95220.00
2023-05-05T08:32:01.769Z,95220.00
2023-05-05T08:33:01.883Z,95218.00
2023-05-05T08:34:01.858Z,95214.00
2023-05-05T08:35:01.875Z,95214.00
2023-05-05T08:36:01.990Z,95211.00
2023-05-05T08:37:02.017Z,95213.00
2023-05-05T08:38:02.060Z,95211.00
2023-05-05T08:39:02.081Z,95209.00
2023-05-05T08:40:02.083Z,95207.00
2023-05-05T08:41:02.134Z,95205.00
2023-05-05T08:42:02.732Z,95207.00
2023-05-05T08:43:02.249Z,95205.00
2023-05-05T08:44:02.311Z,95201.00
2023-05-05T08:45:02.359Z,95199.00
2023-05-05T08:46:02.446Z,95199.00
2023-05-05T08:47:02.533Z,95195.00
2023-05-05T08:48:02.564Z,95195.00
2023-05-05T08:49:02.613Z,95195.00
2023-05-05T08:50:02.621Z,95191.00
2023-05-05T08:51:04.085Z,95193.00
2023-05-05T08:52:02.764Z,95193.00
2023-05-05T08:53:02.702Z,95189.00
2023-05-05T08:54:02.701Z,95191.00
2023-05-05T08:55:02.673Z,95191.00
2023-05-05T08:56:02.670Z,95187.00
2023-05-05T08:57:02.677Z,95187.00
2023-05-05T08:58:02.652Z,95187.00
2023-05-05T08:59:02.644Z,95183.00
2023-05-05T09:00:02.657Z,95185.00
2023-05-05T09:01:05.185Z,95183.00
2023-05-05T09:02:02.852Z,95183.00
2023-05-05T09:03:03.020Z,95179.00
2023-05-05T09:04:02.898Z,95177.00
2023-05-05T09:05:02.993Z,95177.00
2023-05-05T09:06:03.056Z,95175.00
2023-05-05T09:07:03.082Z,95177.00
2023-05-05T09:08:03.193Z,95175.00
2023-05-05T09:09:03.187Z,95171.00
2023-05-05T09:10:03.200Z,95171.00
2023-05-05T09:11:03.274Z,95173.00
2023-05-05T09:12:03.329Z,95173.00
2023-05-05T09:13:03.395Z,95171.00
2023-05-05T09:14:03.405Z,95170.00
2023-05-05T09:15:03.437Z,95170.00
2023-05-05T09:16:03.451Z,95170.00
2023-05-05T09:17:03.527Z,95166.00
2023-05-05T09:18:03.581Z,95164.00
2023-05-05T09:19:03.557Z,95164.00
2023-05-05T09:20:03.555Z,95162.00
2023-05-05T09:21:03.575Z,95158.00
2023-05-05T09:22:03.646Z,95154.00
2023-05-05T09:23:03.642Z,95152.00
2023-05-05T09:24:08.128Z,95156.00
2023-05-05T09:25:04.790Z,95152.00
2023-05-05T09:26:03.662Z,95150.00
2023-05-05T09:27:03.682Z,95150.00
2023-05-05T09:28:03.652Z,95146.00
2023-05-05T09:29:03.618Z,95146.00
2023-05-05T09:30:03.627Z,95146.00
2023-05-05T09:31:03.646Z,95144.00
2023-05-05T09:32:03.636Z,95136.00
2023-05-05T09:33:03.698Z,95134.00
2023-05-05T09:34:03.606Z,95132.00
2023-05-05T09:35:03.624Z,95132.00
2023-05-05T09:36:03.612Z,95128.00
2023-05-05T09:37:03.603Z,95130.00
2023-05-05T09:38:03.582Z,95130.00
2023-05-05T09:39:03.594Z,95126.00
2023-05-05T09:40:03.633Z,95124.00
2023-05-05T09:41:03.609Z,95128.00
2023-05-05T09:42:03.553Z,95128.00
2023-05-05T09:43:03.692Z,95124.00
2023-05-05T09:44:03.563Z,95122.00
2023-05-05T09:45:03.632Z,95121.00
2023-05-05T09:46:03.682Z,95121.00
2023-05-05T09:47:07.228Z,95115.00
2023-05-05T09:48:04.698Z,95117.00
2023-05-05T09:49:03.643Z,95113.00
2023-05-05T09:50:03.643Z,95111.00
2023-05-05T09:51:03.652Z,95113.00
2023-05-05T09:52:03.634Z,95109.00
2023-05-05T09:53:03.645Z,95113.00
2023-05-05T09:54:03.608Z,95109.00
2023-05-05T09:55:03.717Z,95109.00
2023-05-05T09:56:03.645Z,95105.00
2023-05-05T09:57:03.602Z,95105.00
2023-05-05T09:58:03.759Z,95107.00
2023-05-05T09:59:03.554Z,95105.00
2023-05-05T10:00:03.756Z,95103.00
2023-05-05T10:01:03.576Z,95103.00
2023-05-05T10:02:04.209Z,95099.00
2023-05-05T10:03:03.555Z,95095.00
2023-05-05T10:04:03.585Z,95097.00
2023-05-05T10:05:03.640Z,95095.00
2023-05-05T10:06:03.646Z,95095.00
2023-05-05T10:07:03.696Z,95095.00
2023-05-05T10:08:04.214Z,95095.00
2023-05-05T10:09:03.734Z,95091.00
2023-05-05T10:10:03.749Z,95093.00
2023-05-05T10:11:03.797Z,95093.00
2023-05-05T10:12:03.904Z,95091.00
2023-05-05T10:13:03.900Z,95087.00
2023-05-05T10:14:03.913Z,95087.00
2023-05-05T10:15:03.931Z,95085.00
2023-05-05T10:16:03.993Z,95083.00
2023-05-05T10:17:03.984Z,95081.00
2023-05-05T10:18:07.648Z,95079.00
2023-05-05T10:19:04.013Z,95075.00
2023-05-05T10:20:04.035Z,95073.00
2023-05-05T10:21:04.054Z,95073.00
2023-05-05T10:22:04.000Z,95069.00
2023-05-05T10:23:03.995Z,95069.00
2023-05-05T10:24:04.021Z,95069.00
2023-05-05T10:25:03.966Z,95067.00
2023-05-05T10:26:03.959Z,95067.00
2023-05-05T10:27:03.969Z,95067.00
2023-05-05T10:28:04.138Z,95066.00
2023-05-05T10:29:03.958Z,95066.00
2023-05-05T10:30:03.948Z,95062.00
2023-05-05T10:31:09.879Z,95062.00
2023-05-05T10:32:21.495Z,95060.00
2023-05-05T10:33:22.904Z,95056.00
2023-05-05T10:34:05.080Z,95054.00
2023-05-05T10:35:03.934Z,95054.00
2023-05-05T10:36:03.906Z,95046.00
2023-05-05T10:37:04.151Z,95048.00
2023-05-05T10:38:03.899Z,95046.00
2023-05-05T10:39:03.923Z,95044.00
2023-05-05T10:40:03.893Z,95044.00
2023-05-05T10:41:03.847Z,95040.00
2023-05-05T10:42:03.840Z,95034.00
2023-05-05T10:43:03.843Z,95034.00
2023-05-05T10:44:04.690Z,95030.00
2023-05-05T10:45:03.881Z,95032.00
2023-05-05T10:46:03.883Z,95028.00
2023-05-05T10:47:03.837Z,95024.00
2023-05-05T10:48:03.913Z,95024.00
2023-05-05T10:49:03.819Z,95024.00
2023-05-05T10:50:03.843Z,95022.00
2023-05-05T10:51:03.792Z,95022.00
2023-05-05T10:52:03.832Z,95022.00
2023-05-05T10:53:03.848Z,95020.00
2023-05-05T10:54:03.775Z,95020.00
2023-05-05T10:55:03.789Z,95019.00
2023-05-05T10:56:03.776Z,95017.00
2023-05-05T10:57:03.782Z,95013.00
2023-05-05T10:58:03.778Z,95013.00
2023-05-05T10:59:03.746Z,95009.00
2023-05-05T11:00:03.854Z,95009.00
2023-05-05T11:01:03.791Z,95007.00
2023-05-05T11:02:03.742Z,95007.00
2023-05-05T11:03:03.798Z,95003.00
2023-05-05T11:04:03.767Z,95001.00
2023-05-05T11:05:03.706Z,94999.00
2023-05-05T11:06:03.732Z,94999.00
2023-05-05T11:07:03.691Z,94997.00
2023-05-05T11:08:03.690Z,94997.00
2023-05-05T11:09:03.669Z,94995.00
2023-05-05T11:10:03.690Z,94993.00
2023-05-05T11:11:03.675Z,94991.00
2023-05-05T11:12:03.656Z,94989.00
2023-05-05T11:13:03.695Z,94987.00
2023-05-05T11:14:03.630Z,94985.00
2023-05-05T11:15:03.643Z,94983.00
2023-05-05T11:16:03.613Z,94979.00
2023-05-05T11:17:03.661Z,94977.00
2023-05-05T11:18:06.738Z,94977.00
2023-05-05T11:19:03.609Z,94971.00
2023-05-05T11:20:03.623Z,94969.00
2023-05-05T11:21:03.580Z,94968.00
2023-05-05T11:22:03.636Z,94966.00
2023-05-05T11:23:03.610Z,94964.00
2023-05-05T11:24:03.556Z,94962.00
2023-05-05T11:25:03.651Z,94958.00
2023-05-05T11:26:03.577Z,94956.00
2023-05-05T11:27:03.541Z,94956.00
2023-05-05T11:28:03.531Z,94956.00
2023-05-05T11:29:03.557Z,94956.00
2023-05-05T11:30:03.554Z,94950.00
2023-05-05T11:31:03.551Z,94954.00
2023-05-05T11:32:03.659Z,94950.00
2023-05-05T11:33:03.794Z,94948.00
2023-05-05T11:34:03.508Z,94948.00
2023-05-05T11:35:03.498Z,94948.00
2023-05-05T11:36:05.839Z,94948.00
2023-05-05T11:37:03.525Z,94940.00
2023-05-05T11:38:03.733Z,94940.00
2023-05-05T11:39:03.476Z,94940.00
2023-05-05T11:40:03.486Z,94938.00
2023-05-05T11:41:03.466Z,94938.00
2023-05-05T11:42:07.950Z,94936.00
2023-05-05T11:43:04.460Z,94932.00
2023-05-05T11:44:03.471Z,94928.00
2023-05-05T11:45:03.418Z,94926.00